createdAt,value
2017-08-03T00:02:07.144Z,78.20
2017-08-03T00:04:35.034Z,77.50
2017-08-03T00:07:02.570Z,77.70
2017-08-03T00:09:30.099Z,77.80
2017-08-03T00:11:57.680Z,77.80
2017-08-03T00:14:25.232Z,77.90
2017-08-03T00:16:53.485Z,78.00
2017-08-03T00:19:21.030Z,78.10
2017-08-03T00:21:48.610Z,78.20
2017-08-03T00:24:16.196Z,78.30
2017-08-03T00:26:43.774Z,78.40
2017-08-03T00:29:11.636Z,78.40
2017-08-03T00:31:39.197Z,78.50
2017-08-03T00:34:06.758Z,78.50
2017-08-03T00:36:34.333Z,78.60
2017-08-03T00:39:01.898Z,78.60
2017-08-03T00:41:29.743Z,78.60
2017-08-03T00:43:57.267Z,78.60
2017-08-03T00:46:25.596Z,78.70
2017-08-03T00:48:53.143Z,78.70
2017-08-03T00:51:20.717Z,78.70
2017-08-03T00:53:48.615Z,78.70
2017-08-03T00:56:16.273Z,78.70
2017-08-03T00:58:44.598Z,79.30
2017-08-03T01:01:12.167Z,78.80
2017-08-03T01:03:39.742Z,78.80
2017-08-03T01:06:07.737Z,78.80
2017-08-03T01:08:35.368Z,79.00
2017-08-03T01:11:02.897Z,78.90
2017-08-03T01:13:30.467Z,78.90
2017-08-03T01:15:57.990Z,78.80
2017-08-03T01:18:25.931Z,78.80
2017-08-03T01:20:53.453Z,78.90
2017-08-03T01:23:21.001Z,78.80
2017-08-03T01:25:48.570Z,79.00
2017-08-03T01:28:16.870Z,79.10
2017-08-03T01:30:44.765Z,79.20
2017-08-03T01:33:12.332Z,79.20
2017-08-03T01:35:39.864Z,79.30
2017-08-03T01:38:07.424Z,79.40
2017-08-03T01:40:34.969Z,79.30
2017-08-03T01:43:02.846Z,79.40
2017-08-03T01:45:37.834Z,79.40
2017-08-03T01:48:05.887Z,79.40
2017-08-03T01:50:33.443Z,79.40
2017-08-03T01:53:00.958Z,79.50
2017-08-03T01:55:28.535Z,79.50
2017-08-03T01:57:56.078Z,79.60
2017-08-03T02:00:24.018Z,79.70
2017-08-03T02:02:52.329Z,79.60
2017-08-03T02:05:19.876Z,79.70
2017-08-03T02:07:47.460Z,79.70
2017-08-03T02:10:15.008Z,79.80
2017-08-03T02:12:42.936Z,80.50
2017-08-03T02:15:10.475Z,79.80
2017-08-03T02:17:37.994Z,79.80
2017-08-03T02:20:05.546Z,79.80
2017-08-03T02:22:33.852Z,79.80
2017-08-03T02:25:01.730Z,79.80
2017-08-03T02:27:29.313Z,79.80
2017-08-03T02:29:56.842Z,79.80
2017-08-03T02:32:24.409Z,80.00
2017-08-03T02:34:51.946Z,80.00
2017-08-03T02:37:19.793Z,80.10
2017-08-03T02:39:48.095Z,80.40
2017-08-03T02:42:15.612Z,80.40
2017-08-03T02:44:43.190Z,80.40
2017-08-03T02:47:11.511Z,80.70
2017-08-03T02:49:39.422Z,80.80
2017-08-03T02:52:06.981Z,80.80
2017-08-03T02:54:34.521Z,81.00
2017-08-03T02:57:02.183Z,81.80
2017-08-03T02:59:29.748Z,81.10
2017-08-03T03:01:57.627Z,81.30
2017-08-03T03:04:25.161Z,81.30
2017-08-03T03:06:52.694Z,81.30
2017-08-03T03:09:20.289Z,81.30
2017-08-03T03:11:47.809Z,81.40
2017-08-03T03:14:15.712Z,81.40
2017-08-03T03:16:43.241Z,81.50
2017-08-03T03:19:10.801Z,81.50
2017-08-03T03:21:38.420Z,81.60
2017-08-03T03:24:05.964Z,81.50
2017-08-03T03:26:33.813Z,81.60
2017-08-03T03:29:01.342Z,81.60
2017-08-03T03:31:28.927Z,81.70
2017-08-03T03:33:56.510Z,81.80
2017-08-03T03:36:24.038Z,81.30
2017-08-03T03:38:53.871Z,81.70
2017-08-03T03:41:21.403Z,81.70
2017-08-03T03:43:48.956Z,81.60
2017-08-03T03:46:16.513Z,81.70
2017-08-03T03:48:44.077Z,81.70
2017-08-03T03:51:12.016Z,81.80
2017-08-03T03:53:39.551Z,81.70
2017-08-03T03:56:07.112Z,81.80
2017-08-03T03:58:34.683Z,81.70
2017-08-03T04:01:02.297Z,81.80
2017-08-03T04:03:31.044Z,81.70
2017-08-03T04:05:58.576Z,81.70
2017-08-03T04:08:26.107Z,81.70
2017-08-03T04:10:53.674Z,81.70
2017-08-03T04:13:21.212Z,81.70
2017-08-03T04:15:49.049Z,81.80
2017-08-03T04:18:21.648Z,81.80
2017-08-03T04:20:50.296Z,81.50
2017-08-03T04:23:17.845Z,81.60
2017-08-03T04:25:45.381Z,81.60
2017-08-03T04:28:12.973Z,81.50
2017-08-03T04:30:40.490Z,81.40
2017-08-03T04:33:08.411Z,81.40
2017-08-03T04:35:35.958Z,81.30
2017-08-03T04:38:03.486Z,81.30
2017-08-03T04:40:31.069Z,81.10
2017-08-03T04:42:58.600Z,81.00
2017-08-03T04:45:27.232Z,80.80
2017-08-03T04:47:54.771Z,80.80
2017-08-03T04:50:22.288Z,80.60
2017-08-03T04:52:49.857Z,80.50
2017-08-03T04:55:17.421Z,80.40
2017-08-03T04:57:45.274Z,80.20
2017-08-03T05:00:12.797Z,80.20
2017-08-03T05:02:40.352Z,80.10
2017-08-03T05:05:07.932Z,80.00
2017-08-03T05:07:35.455Z,79.80
2017-08-03T05:10:03.270Z,79.60
2017-08-03T05:12:30.837Z,79.40
2017-08-03T05:14:58.380Z,79.30
2017-08-03T05:17:25.992Z,79.10
2017-08-03T05:19:53.551Z,79.00
2017-08-03T05:22:21.396Z,79.00
2017-08-03T05:24:48.997Z,78.90
2017-08-03T05:27:16.576Z,78.90
2017-08-03T05:29:44.168Z,78.80
2017-08-03T05:32:11.701Z,78.80
2017-08-03T05:34:39.669Z,78.70
2017-08-03T05:37:07.191Z,78.70
2017-08-03T05:39:34.770Z,78.60
2017-08-03T05:42:02.320Z,78.60
2017-08-03T05:44:29.859Z,78.50
2017-08-03T05:46:58.647Z,78.10
2017-08-03T05:49:26.978Z,77.90
2017-08-03T05:51:54.544Z,78.00
2017-08-03T05:54:22.137Z,77.80
2017-08-03T05:56:49.674Z,77.50
2017-08-03T05:59:17.541Z,77.20
2017-08-03T06:01:45.109Z,77.10
2017-08-03T06:04:12.634Z,76.90
2017-08-03T06:06:40.207Z,76.80
2017-08-03T06:09:07.778Z,76.60
2017-08-03T06:11:47.221Z,76.30
2017-08-03T06:14:14.817Z,75.80
2017-08-03T06:16:43.125Z,75.30
2017-08-03T06:19:11.011Z,75.30
2017-08-03T06:21:38.721Z,74.90
2017-08-03T06:24:10.228Z,74.50
2017-08-03T06:26:37.804Z,74.00
2017-08-03T06:29:05.383Z,73.30
2017-08-03T06:31:32.924Z,72.90
2017-08-03T06:34:00.485Z,72.40
2017-08-03T06:36:28.031Z,72.00
2017-08-03T06:38:55.542Z,71.60
2017-08-03T06:41:23.883Z,71.20
2017-08-03T06:43:59.673Z,71.30
2017-08-03T06:46:27.558Z,71.10
2017-08-03T06:48:55.110Z,70.70
2017-08-03T06:51:24.427Z,70.10
2017-08-03T06:53:52.051Z,70.00
2017-08-03T06:56:27.919Z,69.20
2017-08-03T06:58:55.811Z,69.20
2017-08-03T07:01:23.338Z,68.80
2017-08-03T07:03:50.861Z,68.60
2017-08-03T07:06:18.418Z,68.30
2017-08-03T07:08:45.944Z,68.80
2017-08-03T07:11:13.845Z,67.90
2017-08-03T07:13:41.373Z,67.80
2017-08-03T07:16:08.889Z,67.80
2017-08-03T07:18:36.441Z,67.30
2017-08-03T07:21:03.969Z,67.20
2017-08-03T07:23:31.901Z,67.00
2017-08-03T07:25:59.450Z,66.80
2017-08-03T07:28:26.976Z,66.50
2017-08-03T07:30:54.541Z,66.20
2017-08-03T07:33:22.068Z,65.80
2017-08-03T07:35:49.965Z,66.00
2017-08-03T07:38:17.539Z,64.70
2017-08-03T07:40:45.068Z,64.30
2017-08-03T07:43:29.185Z,63.50
2017-08-03T07:45:57.491Z,63.20
2017-08-03T07:48:25.445Z,63.10
2017-08-03T07:50:53.012Z,63.40
2017-08-03T07:53:20.580Z,63.40
2017-08-03T07:55:48.126Z,63.40
2017-08-03T07:58:15.681Z,63.00
2017-08-03T08:00:44.341Z,62.60
2017-08-03T08:03:11.882Z,62.50
2017-08-03T08:05:39.444Z,62.30
2017-08-03T08:08:07.046Z,62.30
2017-08-03T08:10:35.335Z,62.30
2017-08-03T08:13:03.924Z,62.20
2017-08-03T08:15:31.508Z,62.00
2017-08-03T08:17:59.026Z,62.00
2017-08-03T08:20:26.587Z,62.10
2017-08-03T08:22:54.887Z,61.40
2017-08-03T08:25:22.900Z,61.90
2017-08-03T08:27:50.441Z,61.90
2017-08-03T08:30:17.981Z,61.80
2017-08-03T08:32:45.554Z,61.90
2017-08-03T08:35:13.115Z,61.90
2017-08-03T08:37:41.013Z,62.10
2017-08-03T08:40:08.536Z,62.50
2017-08-03T08:42:36.057Z,62.70
2017-08-03T08:45:03.628Z,62.90
2017-08-03T08:47:31.982Z,64.70
2017-08-03T08:49:59.809Z,63.90
2017-08-03T08:52:27.334Z,63.40
2017-08-03T08:54:54.903Z,63.70
2017-08-03T08:57:23.226Z,64.80
2017-08-03T08:59:50.764Z,64.80
2017-08-03T09:02:18.701Z,65.20
2017-08-03T09:04:46.241Z,65.70
2017-08-03T09:07:13.809Z,66.10
2017-08-03T09:09:41.416Z,67.30
2017-08-03T09:12:09.624Z,68.00
2017-08-03T09:14:37.603Z,68.60
2017-08-03T09:17:05.162Z,68.00
2017-08-03T09:19:32.702Z,68.30
2017-08-03T09:22:00.268Z,68.30
2017-08-03T09:24:27.817Z,68.20
2017-08-03T09:26:55.715Z,68.30
2017-08-03T09:29:23.261Z,68.60
2017-08-03T09:31:50.897Z,68.40
2017-08-03T09:34:18.570Z,68.80
2017-08-03T09:36:46.243Z,68.90
2017-08-03T09:39:14.151Z,69.80
2017-08-03T09:41:42.464Z,69.50
2017-08-03T09:44:10.105Z,69.60
2017-08-03T09:46:43.885Z,69.10
2017-08-03T09:49:11.613Z,69.10
2017-08-03T09:51:39.483Z,69.30
2017-08-03T09:54:15.582Z,69.30
2017-08-03T09:56:43.544Z,68.10
2017-08-03T09:59:11.113Z,68.20
2017-08-03T10:01:38.668Z,68.30
2017-08-03T10:04:06.231Z,68.20
2017-08-03T10:06:39.361Z,68.40
2017-08-03T10:09:07.373Z,68.20
2017-08-03T10:11:34.923Z,68.40
2017-08-03T10:14:11.768Z,68.30
2017-08-03T10:16:43.229Z,67.70
2017-08-03T10:19:10.790Z,68.40
2017-08-03T10:21:38.398Z,67.80
2017-08-03T10:24:05.971Z,68.20
2017-08-03T10:26:33.828Z,68.30
2017-08-03T10:29:05.208Z,68.50
2017-08-03T10:31:33.832Z,69.10
2017-08-03T10:34:01.565Z,69.20
2017-08-03T10:36:39.041Z,69.60
2017-08-03T10:39:06.600Z,69.60
2017-08-03T10:41:34.443Z,69.90
2017-08-03T10:44:02.090Z,70.30
2017-08-03T10:46:30.217Z,70.30
2017-08-03T10:48:58.231Z,70.30
2017-08-03T10:51:26.043Z,69.90
2017-08-03T10:53:53.601Z,70.10
2017-08-03T10:56:22.117Z,70.00
2017-08-03T10:58:50.666Z,69.80
2017-08-03T11:01:18.617Z,69.60
2017-08-03T11:03:46.188Z,69.30
2017-08-03T11:06:33.418Z,69.00
2017-08-03T11:09:00.979Z,69.00
2017-08-03T11:11:28.545Z,68.90
2017-08-03T11:13:56.219Z,69.20
2017-08-03T11:16:23.940Z,69.20
2017-08-03T11:18:52.083Z,69.30
2017-08-03T11:21:19.688Z,69.30
2017-08-03T11:23:47.253Z,69.20
2017-08-03T11:28:46.617Z,68.10
2017-08-03T11:31:14.559Z,67.90
2017-08-03T11:33:43.698Z,67.50
2017-08-03T11:36:11.356Z,67.10
2017-08-03T11:38:40.902Z,67.40
2017-08-03T11:41:08.424Z,68.00
2017-08-03T11:43:36.464Z,67.30
2017-08-03T11:46:04.541Z,67.20
2017-08-03T11:48:32.861Z,67.10
2017-08-03T11:51:02.441Z,67.30
2017-08-03T11:53:30.018Z,67.40
2017-08-03T11:55:57.863Z,67.80
2017-08-03T11:58:27.228Z,67.90
2017-08-03T12:00:54.840Z,67.90
2017-08-03T12:03:23.194Z,67.60
2017-08-03T12:05:55.324Z,67.50
2017-08-03T12:08:23.226Z,67.30
2017-08-03T12:10:50.745Z,67.10
2017-08-03T12:13:18.859Z,66.70
2017-08-03T12:15:46.421Z,66.40
2017-08-03T12:18:13.966Z,66.20
2017-08-03T12:20:41.833Z,66.10
2017-08-03T12:23:09.389Z,66.10
2017-08-03T12:25:37.151Z,66.20
2017-08-03T12:28:05.689Z,66.20
2017-08-03T12:30:33.250Z,66.20
2017-08-03T12:33:02.748Z,66.20
2017-08-03T12:35:30.313Z,66.20
2017-08-03T12:37:58.649Z,65.30
2017-08-03T12:40:26.369Z,65.30
2017-08-03T12:42:53.919Z,64.70
2017-08-03T12:45:22.490Z,63.00
2017-08-03T12:47:50.796Z,62.40
2017-08-03T12:50:18.508Z,62.40
2017-08-03T12:52:46.100Z,61.90
2017-08-03T12:55:14.080Z,61.40
2017-08-03T12:57:42.127Z,60.80
2017-08-03T13:00:10.493Z,59.40
2017-08-03T13:02:38.066Z,59.70
2017-08-03T13:05:05.706Z,59.70
2017-08-03T13:07:33.469Z,59.70
2017-08-03T13:10:01.473Z,59.90
2017-08-03T13:12:29.201Z,59.80
2017-08-03T13:14:56.931Z,59.90
2017-08-03T13:17:28.334Z,59.90
2017-08-03T13:19:56.593Z,60.00
2017-08-03T13:22:24.483Z,60.00
2017-08-03T13:24:52.028Z,59.90
2017-08-03T13:27:19.665Z,59.90
2017-08-03T13:29:50.607Z,59.80
2017-08-03T13:32:18.178Z,59.40
2017-08-03T13:34:46.075Z,58.90
2017-08-03T13:37:14.380Z,57.70
2017-08-03T13:39:42.767Z,57.60
2017-08-03T13:42:11.256Z,57.50
2017-08-03T13:44:38.841Z,57.10
2017-08-03T13:47:16.805Z,56.80
2017-08-03T13:49:50.095Z,55.90
2017-08-03T13:52:34.312Z,54.70
2017-08-03T13:55:01.886Z,54.60
2017-08-03T13:57:34.158Z,53.50
2017-08-03T14:00:03.721Z,54.30
2017-08-03T14:02:38.825Z,53.50
2017-08-03T14:05:06.411Z,53.50
2017-08-03T14:07:33.991Z,53.40
2017-08-03T14:10:01.653Z,53.20
2017-08-03T14:12:29.353Z,53.50
2017-08-03T14:15:03.498Z,53.70
2017-08-03T14:17:31.831Z,53.70
2017-08-03T14:19:59.375Z,53.70
2017-08-03T14:22:26.957Z,54.00
2017-08-03T14:24:54.523Z,53.90
2017-08-03T14:27:22.366Z,53.70
2017-08-03T14:29:49.936Z,53.20
2017-08-03T14:32:37.915Z,53.30
2017-08-03T14:35:05.450Z,53.40
2017-08-03T14:37:32.999Z,53.20
2017-08-03T14:40:00.572Z,53.30
2017-08-03T14:42:28.105Z,52.30
2017-08-03T14:44:55.941Z,50.40
2017-08-03T14:47:37.010Z,49.00
2017-08-03T14:50:04.975Z,47.00
2017-08-03T14:52:32.497Z,46.60
2017-08-03T14:55:00.006Z,46.80
2017-08-03T14:57:27.809Z,46.20
2017-08-03T14:59:55.356Z,45.20
2017-08-03T15:02:23.247Z,44.40
2017-08-03T15:04:50.760Z,43.80
2017-08-03T15:07:18.289Z,43.90
2017-08-03T15:09:45.902Z,43.90
2017-08-03T15:12:17.252Z,44.20
2017-08-03T15:14:50.472Z,43.50
2017-08-03T15:17:18.016Z,42.60
2017-08-03T15:19:45.688Z,42.30
2017-08-03T15:22:21.502Z,41.40
2017-08-03T15:24:49.046Z,40.20
2017-08-03T15:27:30.796Z,39.10
2017-08-03T15:29:58.759Z,38.90
2017-08-03T15:32:26.325Z,39.00
2017-08-03T15:34:53.886Z,38.30
2017-08-03T15:37:21.446Z,38.20
2017-08-03T15:39:49.375Z,37.60
2017-08-03T15:42:20.887Z,37.90
2017-08-03T15:44:48.733Z,37.20
2017-08-03T15:47:16.317Z,37.50
2017-08-03T15:49:43.839Z,37.60
2017-08-03T15:52:11.520Z,37.70
2017-08-03T15:54:39.125Z,37.70
2017-08-03T15:57:08.766Z,36.90
2017-08-03T15:59:37.137Z,37.00
2017-08-03T16:02:04.712Z,37.00
2017-08-03T16:04:39.334Z,37.20
2017-08-03T16:07:06.885Z,36.60
2017-08-03T16:09:34.800Z,36.30
2017-08-03T16:12:04.412Z,36.20
2017-08-03T16:14:31.956Z,36.90
2017-08-03T16:16:59.527Z,36.90
2017-08-03T16:19:35.112Z,37.30
2017-08-03T16:22:02.994Z,37.80
2017-08-03T16:24:30.785Z,37.70
2017-08-03T16:26:58.421Z,37.70
2017-08-03T16:29:25.993Z,37.40
2017-08-03T16:31:53.599Z,38.50
2017-08-03T16:34:21.453Z,37.20
2017-08-03T16:36:49.019Z,37.10
2017-08-03T16:39:16.574Z,37.60
2017-08-03T16:41:44.215Z,37.20
2017-08-03T16:44:17.725Z,37.60
2017-08-03T16:46:45.670Z,37.10
2017-08-03T16:49:26.057Z,36.70
2017-08-03T16:51:53.918Z,37.00
2017-08-03T16:54:21.472Z,37.20
2017-08-03T16:57:04.132Z,38.30
2017-08-03T16:59:31.673Z,37.60
2017-08-03T17:01:59.581Z,37.80
2017-08-03T17:04:28.312Z,37.90
2017-08-03T17:06:55.886Z,37.90
2017-08-03T17:09:23.461Z,38.00
2017-08-03T17:11:51.009Z,37.70
2017-08-03T17:14:18.869Z,37.90
2017-08-03T17:16:47.427Z,38.20
2017-08-03T17:19:14.988Z,38.30
2017-08-03T17:21:43.333Z,38.80
2017-08-03T17:24:10.910Z,38.70
2017-08-03T17:26:38.845Z,38.50
2017-08-03T17:29:06.378Z,38.80
2017-08-03T17:31:34.041Z,38.50
2017-08-03T17:34:01.725Z,38.40
2017-08-03T17:36:29.281Z,38.10
2017-08-03T17:38:57.223Z,39.50
2017-08-03T17:41:24.782Z,39.20
2017-08-03T17:43:52.418Z,39.80
2017-08-03T17:46:20.760Z,40.70
2017-08-03T17:48:48.297Z,40.30
2017-08-03T17:51:16.213Z,40.10
2017-08-03T17:53:43.769Z,40.40
2017-08-03T17:56:11.751Z,40.80
2017-08-03T17:58:39.487Z,40.90
2017-08-03T18:01:07.065Z,40.80
2017-08-03T18:03:34.921Z,41.30
2017-08-03T18:06:02.485Z,42.20
2017-08-03T18:08:44.802Z,42.80
2017-08-03T18:11:12.381Z,43.10
2017-08-03T18:13:46.220Z,44.00
2017-08-03T18:16:14.695Z,44.10
2017-08-03T18:18:42.299Z,44.60
2017-08-03T18:21:09.908Z,45.40
2017-08-03T18:23:37.533Z,45.50
2017-08-03T18:26:06.277Z,46.30
2017-08-03T18:28:34.049Z,46.30
2017-08-03T18:31:01.716Z,47.00
2017-08-03T18:33:29.423Z,47.10
2017-08-03T18:35:57.154Z,47.40
2017-08-03T18:38:25.088Z,48.30
2017-08-03T18:40:52.781Z,48.50
2017-08-03T18:43:20.468Z,48.80
2017-08-03T18:45:48.126Z,49.10
2017-08-03T18:48:15.692Z,48.90
2017-08-03T18:50:44.579Z,48.70
2017-08-03T18:53:12.152Z,49.10
2017-08-03T18:55:39.947Z,49.10
2017-08-03T18:58:07.551Z,49.90
2017-08-03T19:00:35.231Z,49.70
2017-08-03T19:03:03.123Z,50.10
2017-08-03T19:05:30.744Z,50.00
2017-08-03T19:08:01.501Z,50.10
2017-08-03T19:10:29.132Z,50.20
2017-08-03T19:12:56.797Z,50.60
2017-08-03T19:15:28.653Z,50.90
2017-08-03T19:17:56.362Z,50.70
2017-08-03T19:20:24.075Z,50.90
2017-08-03T19:22:58.009Z,50.90
2017-08-03T19:25:25.658Z,51.00
2017-08-03T19:27:53.575Z,51.20
2017-08-03T19:30:21.934Z,51.50
2017-08-03T19:32:49.652Z,51.40
2017-08-03T19:35:17.449Z,51.50
2017-08-03T19:37:45.301Z,51.90
2017-08-03T19:40:13.555Z,52.30
2017-08-03T19:42:47.250Z,52.50
2017-08-03T19:45:18.357Z,52.00
2017-08-03T19:47:46.088Z,52.60
2017-08-03T19:50:14.727Z,52.60
2017-08-03T19:52:43.203Z,52.90
2017-08-03T19:55:12.733Z,52.60
2017-08-03T19:57:40.896Z,53.10
2017-08-03T20:00:08.501Z,53.00
2017-08-03T20:02:36.046Z,53.00
2017-08-03T20:05:06.738Z,53.20
2017-08-03T20:07:44.246Z,53.20
2017-08-03T20:10:13.647Z,53.30
2017-08-03T20:12:41.198Z,53.70
2017-08-03T20:15:10.313Z,53.80
2017-08-03T20:17:41.651Z,53.80
2017-08-03T20:20:09.294Z,53.70
2017-08-03T20:22:36.981Z,54.30
2017-08-03T20:25:04.666Z,54.30
2017-08-03T20:27:33.507Z,54.20
2017-08-03T20:30:03.271Z,54.30
2017-08-03T20:32:30.978Z,54.30
2017-08-03T20:34:59.764Z,55.00
2017-08-03T20:37:27.727Z,55.10
2017-08-03T20:39:56.397Z,55.10
2017-08-03T20:42:24.114Z,55.30
2017-08-03T20:44:52.591Z,55.10
2017-08-03T20:47:20.409Z,55.30
2017-08-03T20:49:48.112Z,55.90
2017-08-03T20:52:19.064Z,55.60
2017-08-03T20:54:46.715Z,55.80
2017-08-03T20:57:19.294Z,55.90
2017-08-03T20:59:46.931Z,55.70
2017-08-03T21:02:14.599Z,55.90
2017-08-03T21:04:43.395Z,56.00
2017-08-03T21:07:11.077Z,56.20
2017-08-03T21:09:40.147Z,56.40
2017-08-03T21:12:07.899Z,56.40
2017-08-03T21:14:37.690Z,56.90
2017-08-03T21:17:05.399Z,56.70
2017-08-03T21:19:32.976Z,57.10
2017-08-03T21:22:00.901Z,56.70
2017-08-03T21:24:33.014Z,56.80
2017-08-03T21:27:01.012Z,56.90
2017-08-03T21:29:28.640Z,57.10
2017-08-03T21:31:56.497Z,57.30
2017-08-03T21:34:24.157Z,57.30
2017-08-03T21:36:51.876Z,57.50
2017-08-03T21:39:19.918Z,57.50
2017-08-03T21:41:47.528Z,57.60
2017-08-03T21:44:15.085Z,57.80
2017-08-03T21:46:42.663Z,57.60
2017-08-03T21:49:10.263Z,57.60
2017-08-03T21:51:38.143Z,57.60
2017-08-03T21:54:05.721Z,57.60
2017-08-03T21:56:33.322Z,57.70
2017-08-03T21:59:05.695Z,57.80
2017-08-03T22:01:33.235Z,57.80
2017-08-03T22:04:01.982Z,58.20
2017-08-03T22:06:29.645Z,58.30
2017-08-03T22:08:57.335Z,58.50
2017-08-03T22:11:24.919Z,58.80
2017-08-03T22:13:52.496Z,58.80
2017-08-03T22:16:20.402Z,58.80
2017-08-03T22:18:47.934Z,58.90
2017-08-03T22:21:15.471Z,59.10
2017-08-03T22:23:43.029Z,59.20
2017-08-03T22:26:11.303Z,59.40
2017-08-03T22:28:39.196Z,59.70
2017-08-03T22:31:06.744Z,59.70
2017-08-03T22:33:35.195Z,59.70
2017-08-03T22:36:02.800Z,59.60
2017-08-03T22:38:31.226Z,59.60
2017-08-03T22:40:59.154Z,59.70
2017-08-03T22:43:26.681Z,59.60
2017-08-03T22:45:54.209Z,59.50
2017-08-03T22:48:22.075Z,59.40
2017-08-03T22:50:49.598Z,59.50
2017-08-03T22:53:17.139Z,59.70
2017-08-03T22:55:45.063Z,59.70
2017-08-03T22:58:13.379Z,60.30
2017-08-03T23:00:44.773Z,60.30
2017-08-03T23:03:12.636Z,60.50
2017-08-03T23:05:40.166Z,60.90
2017-08-03T23:08:07.714Z,61.10
2017-08-03T23:10:35.564Z,61.30
2017-08-03T23:13:03.860Z,61.60
2017-08-03T23:15:31.403Z,61.70
2017-08-03T23:17:59.318Z,62.10
2017-08-03T23:20:26.859Z,62.40
2017-08-03T23:22:54.388Z,62.70
2017-08-03T23:25:23.044Z,63.50
2017-08-03T23:27:50.560Z,63.60
2017-08-03T23:30:18.136Z,63.80
2017-08-03T23:32:46.025Z,63.80
2017-08-03T23:35:13.560Z,64.00
2017-08-03T23:37:41.993Z,64.40
2017-08-03T23:40:09.820Z,64.40
2017-08-03T23:42:37.334Z,64.60
2017-08-03T23:45:08.666Z,64.40
2017-08-03T23:47:36.473Z,64.50
2017-08-03T23:50:04.013Z,64.20
2017-08-03T23:52:43.703Z,64.60
2017-08-03T23:55:11.257Z,64.70
2017-08-03T23:57:38.838Z,64.90
